createdAt,value
2022-07-30T00:00:39.845Z,22.65
2022-07-30T00:03:07.870Z,22.64
2022-07-30T00:05:35.998Z,22.63
2022-07-30T00:08:04.196Z,22.64
2022-07-30T00:10:33.648Z,22.63
2022-07-30T00:13:01.788Z,22.61
2022-07-30T00:15:30.030Z,22.56
2022-07-30T00:17:58.195Z,22.54
2022-07-30T00:20:28.066Z,22.50
2022-07-30T00:22:56.454Z,22.44
2022-07-30T00:25:25.133Z,22.39
2022-07-30T00:27:54.527Z,22.35
2022-07-30T00:30:22.645Z,22.29
2022-07-30T00:32:50.753Z,22.24
2022-07-30T00:35:19.209Z,22.18
2022-07-30T00:37:47.482Z,22.12
2022-07-30T00:40:15.835Z,22.07
2022-07-30T00:42:45.905Z,22.01
2022-07-30T00:45:17.379Z,21.97
2022-07-30T00:47:46.273Z,21.93
2022-07-30T00:50:16.409Z,21.92
2022-07-30T00:52:45.485Z,21.90
2022-07-30T00:55:15.628Z,21.85
2022-07-30T00:57:44.319Z,21.88
2022-07-30T01:00:16.915Z,21.87
2022-07-30T01:02:45.314Z,21.88
2022-07-30T01:05:13.695Z,21.89
2022-07-30T01:07:41.797Z,21.89
2022-07-30T01:10:12.282Z,21.87
2022-07-30T01:12:41.309Z,21.87
2022-07-30T01:15:11.073Z,21.87
2022-07-30T01:17:40.938Z,21.84
2022-07-30T01:20:13.389Z,21.84
2022-07-30T01:22:48.874Z,21.82
2022-07-30T01:25:25.741Z,21.80
2022-07-30T01:27:59.451Z,21.76
2022-07-30T01:30:30.906Z,21.72
2022-07-30T01:33:01.071Z,21.67
2022-07-30T01:35:31.914Z,21.63
2022-07-30T01:38:01.793Z,21.57
2022-07-30T01:40:30.595Z,21.52
2022-07-30T01:43:02.429Z,21.45
2022-07-30T01:45:35.737Z,21.40
2022-07-30T01:48:13.275Z,21.32
2022-07-30T01:50:45.001Z,21.27
2022-07-30T01:53:17.872Z,21.19
2022-07-30T01:55:47.200Z,21.17
2022-07-30T01:58:19.368Z,21.10
2022-07-30T02:00:50.986Z,21.05
2022-07-30T02:03:19.159Z,21.01
2022-07-30T02:05:53.507Z,20.99
2022-07-30T02:08:27.882Z,20.94
2022-07-30T02:11:02.936Z,20.89
2022-07-30T02:13:33.976Z,20.85
2022-07-30T02:16:13.031Z,20.79
2022-07-30T02:18:58.775Z,20.76
2022-07-30T02:21:36.399Z,20.71
2022-07-30T02:24:08.993Z,20.66
2022-07-30T02:26:39.326Z,20.65
2022-07-30T02:29:11.673Z,20.62
2022-07-30T02:31:41.953Z,20.59
2022-07-30T02:34:12.163Z,20.54
2022-07-30T02:36:44.015Z,20.51
2022-07-30T02:39:14.669Z,20.47
2022-07-30T02:41:49.526Z,20.43
2022-07-30T02:44:21.411Z,20.37
2022-07-30T02:46:52.030Z,20.34
2022-07-30T02:49:23.627Z,20.31
2022-07-30T02:51:52.945Z,20.29
2022-07-30T02:54:22.158Z,20.29
2022-07-30T02:56:52.878Z,20.25
2022-07-30T02:59:23.365Z,20.22
2022-07-30T03:01:53.241Z,20.19
2022-07-30T03:04:23.051Z,20.16
2022-07-30T03:06:52.526Z,20.13
2022-07-30T03:09:21.452Z,20.11
2022-07-30T03:11:52.527Z,20.07
2022-07-30T03:14:22.241Z,20.05
2022-07-30T03:16:56.679Z,20.02
2022-07-30T03:19:26.579Z,20.01
2022-07-30T03:21:57.251Z,19.98
2022-07-30T03:24:26.601Z,19.96
2022-07-30T03:26:56.752Z,19.92
2022-07-30T03:29:28.098Z,19.91
2022-07-30T03:31:56.554Z,19.89
2022-07-30T03:34:26.624Z,19.86
2022-07-30T03:36:57.892Z,19.84
2022-07-30T03:39:27.980Z,19.83
2022-07-30T03:41:56.715Z,19.84
2022-07-30T03:44:27.933Z,19.82
2022-07-30T03:46:59.233Z,19.81
2022-07-30T03:49:27.980Z,19.79
2022-07-30T03:51:56.923Z,19.77
2022-07-30T03:54:26.692Z,19.76
2022-07-30T03:57:15.302Z,19.73
2022-07-30T03:59:51.798Z,19.72
2022-07-30T04:02:21.565Z,19.71
2022-07-30T04:05:19.041Z,19.70
2022-07-30T04:07:48.408Z,19.70
2022-07-30T04:10:18.521Z,19.69
2022-07-30T04:13:09.814Z,19.68
2022-07-30T04:16:37.242Z,19.71
2022-07-30T04:18:41.129Z,19.71
2022-07-30T04:21:17.288Z,19.73
2022-07-30T04:24:04.005Z,19.74
2022-07-30T04:26:36.743Z,19.77
2022-07-30T04:29:07.332Z,19.79
2022-07-30T04:31:40.996Z,19.83
2022-07-30T04:34:46.488Z,19.84
2022-07-30T04:37:17.252Z,19.87
2022-07-30T04:39:45.747Z,19.92
2022-07-30T04:42:14.379Z,19.95
2022-07-30T04:44:45.559Z,19.98
2022-07-30T04:47:37.574Z,20.02
2022-07-30T04:50:27.400Z,20.07
2022-07-30T04:52:56.982Z,20.13
2022-07-30T04:55:29.668Z,20.17
2022-07-30T04:57:59.083Z,20.32
2022-07-30T05:00:32.552Z,20.37
2022-07-30T05:03:04.648Z,20.45
2022-07-30T05:05:34.227Z,20.57
2022-07-30T05:08:03.754Z,20.63
2022-07-30T05:10:32.856Z,20.73
2022-07-30T05:13:01.669Z,20.76
2022-07-30T05:15:37.162Z,20.87
2022-07-30T05:18:09.686Z,20.87
2022-07-30T05:20:41.526Z,20.96
2022-07-30T05:23:22.091Z,21.09
2022-07-30T05:26:00.546Z,21.16
2022-07-30T05:28:37.463Z,21.28
2022-07-30T05:31:09.397Z,21.35
2022-07-30T05:33:42.672Z,21.45
2022-07-30T05:36:17.229Z,21.53
2022-07-30T05:38:45.810Z,21.58
2022-07-30T05:41:33.263Z,21.68
2022-07-30T05:44:04.525Z,21.76
2022-07-30T05:46:33.106Z,21.80
2022-07-30T05:49:03.794Z,21.95
2022-07-30T05:51:32.270Z,22.02
2022-07-30T05:54:00.570Z,22.11
2022-07-30T05:56:48.458Z,22.22
2022-07-30T05:59:21.814Z,22.32
2022-07-30T06:02:06.960Z,22.39
2022-07-30T06:05:06.327Z,22.48
2022-07-30T06:07:36.020Z,22.62
2022-07-30T06:10:06.760Z,22.68
2022-07-30T06:12:35.189Z,22.81
2022-07-30T06:15:03.861Z,22.92
2022-07-30T06:17:42.061Z,22.99
2022-07-30T06:20:24.756Z,23.10
2022-07-30T06:23:01.991Z,23.24
2022-07-30T06:25:48.246Z,23.37
2022-07-30T06:31:09.050Z,23.56
2022-07-30T06:33:37.915Z,23.69
2022-07-30T06:36:08.049Z,23.74
2022-07-30T06:38:52.110Z,23.67
2022-07-30T06:41:28.335Z,23.83
2022-07-30T06:43:59.826Z,23.95
2022-07-30T06:46:50.887Z,23.89
2022-07-30T06:49:21.659Z,24.01
2022-07-30T06:51:51.537Z,24.09
2022-07-30T06:54:20.156Z,24.18
2022-07-30T06:57:18.077Z,24.34
2022-07-30T06:59:56.356Z,24.46
2022-07-30T07:02:42.929Z,24.58
2022-07-30T07:05:15.443Z,24.72
2022-07-30T07:07:58.655Z,24.98
2022-07-30T07:10:32.023Z,25.20
2022-07-30T07:13:26.447Z,25.33
2022-07-30T07:15:55.478Z,25.38
2022-07-30T07:18:26.622Z,25.53
2022-07-30T07:21:00.535Z,25.69
2022-07-30T07:23:39.879Z,25.93
2022-07-30T07:26:19.233Z,26.22
2022-07-30T07:28:47.791Z,26.41
2022-07-30T07:32:06.919Z,26.73
2022-07-30T07:34:05.550Z,27.07
2022-07-30T07:36:35.388Z,27.41
2022-07-30T07:39:09.842Z,27.67
2022-07-30T07:41:49.346Z,27.72
2022-07-30T07:44:23.313Z,27.87
2022-07-30T07:46:51.924Z,28.02
2022-07-30T07:49:20.536Z,28.33
2022-07-30T07:51:52.239Z,28.50
2022-07-30T07:54:24.197Z,28.69
2022-07-30T07:56:57.393Z,28.80
2022-07-30T07:59:44.507Z,29.19
2022-07-30T08:02:21.835Z,29.29
2022-07-30T08:04:56.615Z,29.37
2022-07-30T08:07:51.714Z,29.57
2022-07-30T08:10:40.194Z,29.60
2022-07-30T08:13:51.567Z,29.66
2022-07-30T08:16:54.104Z,29.67
2022-07-30T08:19:47.555Z,29.66
2022-07-30T08:22:24.097Z,29.80
2022-07-30T08:24:52.497Z,29.89
2022-07-30T08:27:22.326Z,29.91
2022-07-30T08:29:50.748Z,30.03
2022-07-30T08:32:19.640Z,29.89
2022-07-30T08:34:48.245Z,29.88
2022-07-30T08:37:16.811Z,29.97
2022-07-30T08:39:45.154Z,30.07
2022-07-30T08:42:16.890Z,30.02
2022-07-30T08:44:47.853Z,30.17
2022-07-30T08:47:19.512Z,30.15
2022-07-30T08:50:13.010Z,30.10
2022-07-30T08:53:15.801Z,30.11
2022-07-30T08:55:45.946Z,30.19
2022-07-30T08:58:25.475Z,30.20
2022-07-30T09:03:25.166Z,30.42
2022-07-30T09:05:54.364Z,30.66
2022-07-30T09:08:23.217Z,30.96
2022-07-30T09:10:55.668Z,31.13
2022-07-30T09:13:29.077Z,31.16
2022-07-30T09:16:00.823Z,31.25
2022-07-30T09:18:33.080Z,31.35
2022-07-30T09:21:02.481Z,31.44
2022-07-30T09:23:30.967Z,31.63
2022-07-30T09:26:55.328Z,31.72
2022-07-30T09:29:42.772Z,31.99
2022-07-30T09:32:49.840Z,32.09
2022-07-30T09:35:27.917Z,32.24
2022-07-30T09:38:12.218Z,32.48
2022-07-30T09:41:41.508Z,32.94
2022-07-30T09:44:12.114Z,32.97
2022-07-30T09:46:47.881Z,32.97
2022-07-30T09:49:25.678Z,32.99
2022-07-30T09:51:56.983Z,33.29
2022-07-30T09:54:51.266Z,33.70
2022-07-30T09:57:27.869Z,34.08
2022-07-30T10:00:19.683Z,34.19
2022-07-30T10:03:33.152Z,34.34
2022-07-30T10:06:34.159Z,34.49
2022-07-30T10:09:13.656Z,34.47
2022-07-30T10:11:50.211Z,34.16
2022-07-30T10:14:23.936Z,34.33
2022-07-30T10:17:00.252Z,34.51
2022-07-30T10:19:39.476Z,34.54
2022-07-30T10:22:45.059Z,34.55
2022-07-30T10:25:35.364Z,34.98
2022-07-30T10:28:39.390Z,35.15
2022-07-30T10:31:49.548Z,35.00
2022-07-30T10:34:00.133Z,34.64
2022-07-30T10:36:29.585Z,34.45
2022-07-30T10:38:59.524Z,34.24
2022-07-30T10:41:47.811Z,34.34
2022-07-30T10:44:48.938Z,34.08
2022-07-30T10:47:19.839Z,34.20
2022-07-30T10:50:10.550Z,34.56
2022-07-30T10:52:50.798Z,34.76
2022-07-30T10:55:37.203Z,34.55
2022-07-30T10:58:09.305Z,34.15
2022-07-30T11:01:01.665Z,34.20
2022-07-30T11:03:41.319Z,34.67
2022-07-30T11:06:28.102Z,34.92
2022-07-30T11:08:57.408Z,34.98
2022-07-30T11:12:00.962Z,35.14
2022-07-30T11:15:06.838Z,35.35
2022-07-30T11:18:11.268Z,35.15
2022-07-30T11:20:41.164Z,34.73
2022-07-30T11:23:35.518Z,34.40
2022-07-30T11:26:04.702Z,34.57
2022-07-30T11:28:42.925Z,34.92
2022-07-30T11:31:56.590Z,34.97
2022-07-30T11:34:31.216Z,35.12
2022-07-30T11:37:22.178Z,35.49
2022-07-30T11:40:11.798Z,35.71
2022-07-30T11:42:42.802Z,35.86
2022-07-30T11:45:29.777Z,36.16
2022-07-30T11:48:10.867Z,36.61
2022-07-30T11:50:39.363Z,36.44
2022-07-30T11:53:09.259Z,36.22
2022-07-30T11:55:41.133Z,35.96
2022-07-30T11:58:12.487Z,35.95
2022-07-30T12:00:55.378Z,35.80
2022-07-30T12:03:25.131Z,35.52
2022-07-30T12:05:59.323Z,35.14
2022-07-30T12:08:33.315Z,34.93
2022-07-30T12:11:04.555Z,35.07
2022-07-30T12:13:45.132Z,34.83
2022-07-30T12:16:17.956Z,35.07
2022-07-30T12:18:50.238Z,35.60
2022-07-30T12:21:25.619Z,35.89
2022-07-30T12:24:02.459Z,35.57
2022-07-30T12:26:31.982Z,35.06
2022-07-30T12:29:03.279Z,34.81
2022-07-30T12:31:49.463Z,35.31
2022-07-30T12:34:22.079Z,35.85
2022-07-30T12:36:50.289Z,36.29
2022-07-30T12:39:27.036Z,36.36
2022-07-30T12:41:57.110Z,36.55
2022-07-30T12:44:39.982Z,36.60
2022-07-30T12:47:22.167Z,36.45
2022-07-30T12:49:53.347Z,36.21
2022-07-30T12:52:28.478Z,36.25
2022-07-30T12:55:03.561Z,35.95
2022-07-30T12:58:07.418Z,36.18
2022-07-30T13:00:52.868Z,36.32
2022-07-30T13:03:37.545Z,36.13
2022-07-30T13:06:24.553Z,36.18
2022-07-30T13:09:09.966Z,36.23
2022-07-30T13:12:10.472Z,36.47
2022-07-30T13:14:47.610Z,36.98
2022-07-30T13:17:15.683Z,37.05
2022-07-30T13:19:45.213Z,37.05
2022-07-30T13:22:13.526Z,37.10
2022-07-30T13:24:41.639Z,37.11
2022-07-30T13:27:09.927Z,36.69
2022-07-30T13:29:38.103Z,36.53
2022-07-30T13:32:06.831Z,36.56
2022-07-30T13:34:34.911Z,36.76
2022-07-30T13:37:04.855Z,36.51
2022-07-30T13:39:33.262Z,36.37
2022-07-30T13:42:01.370Z,36.38
2022-07-30T13:44:29.457Z,36.41
2022-07-30T13:47:01.575Z,36.44
2022-07-30T13:49:30.307Z,36.28
2022-07-30T13:51:58.600Z,36.11
2022-07-30T13:54:29.383Z,36.12
2022-07-30T13:56:57.614Z,36.00
2022-07-30T13:59:25.929Z,35.77
2022-07-30T14:01:54.081Z,35.27
2022-07-30T14:04:22.154Z,35.18
2022-07-30T14:06:50.273Z,35.25
2022-07-30T14:09:18.436Z,35.24
2022-07-30T14:11:48.101Z,35.23
2022-07-30T14:14:16.262Z,35.11
2022-07-30T14:16:46.639Z,34.94
2022-07-30T14:19:23.990Z,34.97
2022-07-30T14:21:54.115Z,35.04
2022-07-30T14:24:23.163Z,35.06
2022-07-30T14:26:57.785Z,34.99
2022-07-30T14:29:27.116Z,34.74
2022-07-30T14:31:55.448Z,34.63
2022-07-30T14:34:23.794Z,34.56
2022-07-30T14:36:55.462Z,34.52
2022-07-30T14:39:26.064Z,34.49
2022-07-30T14:41:56.177Z,34.42
2022-07-30T14:44:24.698Z,34.16
2022-07-30T14:47:02.012Z,34.06
2022-07-30T14:49:30.676Z,34.07
2022-07-30T14:51:58.901Z,34.09
2022-07-30T14:54:27.943Z,33.85
2022-07-30T14:56:58.593Z,33.74
2022-07-30T14:59:27.869Z,33.71
2022-07-30T15:01:56.547Z,33.82
2022-07-30T15:04:24.695Z,34.06
2022-07-30T15:06:52.873Z,33.85
2022-07-30T15:09:21.039Z,33.83
2022-07-30T15:12:08.543Z,33.76
2022-07-30T15:14:40.000Z,33.74
2022-07-30T15:17:08.403Z,33.62
2022-07-30T15:19:49.893Z,33.56
2022-07-30T15:22:29.767Z,33.48
2022-07-30T15:24:57.985Z,33.27
2022-07-30T15:27:33.997Z,33.15
2022-07-30T15:30:07.581Z,33.23
2022-07-30T15:32:37.197Z,33.11
2022-07-30T15:35:13.890Z,32.67
2022-07-30T15:37:44.853Z,32.31
2022-07-30T15:40:16.496Z,32.28
2022-07-30T15:45:31.531Z,32.55
2022-07-30T15:48:26.654Z,32.61
2022-07-30T15:51:03.781Z,32.55
2022-07-30T15:53:35.606Z,32.52
2022-07-30T15:56:33.215Z,32.42
2022-07-30T15:59:08.850Z,32.33
2022-07-30T16:01:44.560Z,32.26
2022-07-30T16:04:19.268Z,32.26
2022-07-30T16:07:00.357Z,32.01
2022-07-30T16:09:33.074Z,31.85
2022-07-30T16:12:03.358Z,31.67
2022-07-30T16:14:34.255Z,31.68
2022-07-30T16:17:05.446Z,31.86
2022-07-30T16:19:35.504Z,32.00
2022-07-30T16:22:08.038Z,32.09
2022-07-30T16:24:36.843Z,31.93
2022-07-30T16:27:14.261Z,31.64
2022-07-30T16:29:48.934Z,31.38
2022-07-30T16:32:21.926Z,31.15
2022-07-30T16:34:51.498Z,30.95
2022-07-30T16:37:23.767Z,30.70
2022-07-30T16:39:52.528Z,30.61
2022-07-30T16:42:22.191Z,30.71
2022-07-30T16:44:50.401Z,30.82
2022-07-30T16:47:26.386Z,30.79
2022-07-30T16:49:57.863Z,30.72
2022-07-30T16:52:29.877Z,30.69
2022-07-30T16:55:03.118Z,30.65
2022-07-30T16:57:32.066Z,30.49
2022-07-30T17:00:00.276Z,30.47
2022-07-30T17:02:31.594Z,30.47
2022-07-30T17:04:59.991Z,30.36
2022-07-30T17:07:28.893Z,30.16
2022-07-30T17:09:58.642Z,30.08
2022-07-30T17:12:31.547Z,30.01
2022-07-30T17:15:00.227Z,29.94
2022-07-30T17:17:30.149Z,29.78
2022-07-30T17:20:00.333Z,29.59
2022-07-30T17:22:29.013Z,29.41
2022-07-30T17:24:58.820Z,29.17
2022-07-30T17:27:31.618Z,28.93
2022-07-30T17:29:59.981Z,28.76
2022-07-30T17:32:30.416Z,28.60
2022-07-30T17:34:59.411Z,28.53
2022-07-30T17:37:27.434Z,28.41
2022-07-30T17:40:18.869Z,28.31
2022-07-30T17:42:46.490Z,28.25
2022-07-30T17:45:15.204Z,28.20
2022-07-30T17:47:49.585Z,28.03
2022-07-30T17:53:04.039Z,27.81
2022-07-30T17:55:35.079Z,27.75
2022-07-30T17:58:03.961Z,27.69
2022-07-30T18:00:34.764Z,27.63
2022-07-30T18:03:05.182Z,27.57
2022-07-30T18:05:33.564Z,27.51
2022-07-30T18:08:01.827Z,27.43
2022-07-30T18:10:30.232Z,27.35
2022-07-30T18:12:58.585Z,27.28
2022-07-30T18:15:47.269Z,27.17
2022-07-30T18:18:17.420Z,27.16
2022-07-30T18:20:56.822Z,27.08
2022-07-30T18:23:25.771Z,27.07
2022-07-30T18:26:03.245Z,27.05
2022-07-30T18:28:31.798Z,26.97
2022-07-30T18:31:00.242Z,26.91
2022-07-30T18:33:30.221Z,26.77
2022-07-30T18:35:59.193Z,26.70
2022-07-30T18:38:27.864Z,26.67
2022-07-30T18:40:59.289Z,26.61
2022-07-30T18:43:28.697Z,26.55
2022-07-30T18:45:57.686Z,26.52
2022-07-30T18:48:26.723Z,26.49
2022-07-30T18:50:56.418Z,26.43
2022-07-30T18:53:24.911Z,26.37
2022-07-30T18:55:53.319Z,26.34
2022-07-30T18:58:21.966Z,26.27
2022-07-30T19:00:50.852Z,26.25
2022-07-30T19:03:22.989Z,26.24
2022-07-30T19:05:51.647Z,26.21
2022-07-30T19:08:21.459Z,26.19
2022-07-30T19:10:49.950Z,26.13
2022-07-30T19:13:18.558Z,26.10
2022-07-30T19:15:47.327Z,26.03
2022-07-30T19:18:15.652Z,25.96
2022-07-30T19:20:44.757Z,25.90
2022-07-30T19:23:13.746Z,25.86
2022-07-30T19:25:43.710Z,25.80
2022-07-30T19:28:13.943Z,25.73
2022-07-30T19:30:42.732Z,25.66
2022-07-30T19:33:15.588Z,25.60
2022-07-30T19:35:44.765Z,25.51
2022-07-30T19:38:21.367Z,25.45
2022-07-30T19:40:52.170Z,25.40
2022-07-30T19:43:23.995Z,25.36
2022-07-30T19:45:54.079Z,25.34
2022-07-30T19:48:28.584Z,25.31
2022-07-30T19:50:58.304Z,25.29
2022-07-30T19:53:27.917Z,25.24
2022-07-30T19:56:08.424Z,25.21
2022-07-30T19:58:40.113Z,25.16
2022-07-30T20:01:09.901Z,25.12
2022-07-30T20:03:38.934Z,25.06
2022-07-30T20:06:08.222Z,25.06
2022-07-30T20:08:39.416Z,25.02
2022-07-30T20:11:09.689Z,24.98
2022-07-30T20:13:45.229Z,24.94
2022-07-30T20:16:16.202Z,24.89
2022-07-30T20:18:46.153Z,24.88
2022-07-30T20:21:16.195Z,24.87
2022-07-30T20:23:45.453Z,24.85
2022-07-30T20:26:16.161Z,24.84
2022-07-30T20:28:52.569Z,24.83
2022-07-30T20:31:21.390Z,24.80
2022-07-30T20:33:50.828Z,24.78
2022-07-30T20:36:19.608Z,24.77
2022-07-30T20:38:49.336Z,24.76
2022-07-30T20:41:19.859Z,24.76
2022-07-30T20:43:52.425Z,24.76
2022-07-30T20:46:23.778Z,24.73
2022-07-30T20:48:53.265Z,24.72
2022-07-30T20:51:22.051Z,24.66
2022-07-30T20:54:03.097Z,24.63
2022-07-30T20:56:32.853Z,24.61
2022-07-30T20:59:01.279Z,24.60
2022-07-30T21:01:30.986Z,24.58
2022-07-30T21:03:59.417Z,24.54
2022-07-30T21:06:28.207Z,24.50
2022-07-30T21:08:56.923Z,24.49
2022-07-30T21:11:26.611Z,24.48
2022-07-30T21:13:56.448Z,24.48
2022-07-30T21:16:27.307Z,24.45
2022-07-30T21:18:59.728Z,24.46
2022-07-30T21:21:41.661Z,24.45
2022-07-30T21:24:19.425Z,24.47
2022-07-30T21:26:50.396Z,24.46
2022-07-30T21:29:20.358Z,24.45
2022-07-30T21:32:01.100Z,24.47
2022-07-30T21:34:40.430Z,24.46
2022-07-30T21:37:13.103Z,24.45
2022-07-30T21:39:44.411Z,24.47
2022-07-30T21:42:13.371Z,24.48
2022-07-30T21:44:43.578Z,24.50
2022-07-30T21:47:14.362Z,24.50
2022-07-30T21:49:45.050Z,24.54
2022-07-30T21:52:13.503Z,24.50
2022-07-30T21:54:50.437Z,24.46
2022-07-30T21:57:26.203Z,24.43
2022-07-30T21:59:56.971Z,24.41
2022-07-30T22:02:26.661Z,24.36
2022-07-30T22:04:56.583Z,24.40
2022-07-30T22:07:27.683Z,24.42
2022-07-30T22:09:56.094Z,24.43
2022-07-30T22:12:28.931Z,24.45
2022-07-30T22:14:59.921Z,24.46
2022-07-30T22:17:36.878Z,24.46
2022-07-30T22:20:08.713Z,24.47
2022-07-30T22:22:40.062Z,24.46
2022-07-30T22:25:10.223Z,24.42
2022-07-30T22:27:40.155Z,24.41
2022-07-30T22:30:27.004Z,24.36
2022-07-30T22:32:55.701Z,24.38
2022-07-30T22:35:34.098Z,24.33
2022-07-30T22:38:03.465Z,24.27
2022-07-30T22:40:32.156Z,24.23
2022-07-30T22:43:04.168Z,24.21
2022-07-30T22:45:48.827Z,24.21
2022-07-30T22:48:19.172Z,24.23
2022-07-30T22:50:48.391Z,24.35
2022-07-30T22:54:03.657Z,24.40
2022-07-30T22:56:15.725Z,24.29
2022-07-30T22:58:45.249Z,24.26
2022-07-30T23:01:19.299Z,24.25
2022-07-30T23:03:51.674Z,24.29
2022-07-30T23:06:20.583Z,24.31
2022-07-30T23:08:49.242Z,24.30
2022-07-30T23:11:17.819Z,24.28
2022-07-30T23:13:46.277Z,24.24
2022-07-30T23:16:15.554Z,24.24
2022-07-30T23:18:45.404Z,24.27
2022-07-30T23:21:14.523Z,24.21
2022-07-30T23:23:43.351Z,24.21
2022-07-30T23:26:11.844Z,24.19
2022-07-30T23:28:40.673Z,24.15
2022-07-30T23:31:09.311Z,24.12
2022-07-30T23:33:37.746Z,24.12
2022-07-30T23:36:08.939Z,24.18
2022-07-30T23:38:38.122Z,24.13
2022-07-30T23:41:06.889Z,24.16
2022-07-30T23:43:35.914Z,24.13
2022-07-30T23:46:09.489Z,24.09
2022-07-30T23:48:39.627Z,24.06
2022-07-30T23:51:09.373Z,24.04
2022-07-30T23:53:37.994Z,24.02
2022-07-30T23:56:08.078Z,24.03
2022-07-30T23:58:36.409Z,24.11
